Arnoldsville, Georgia
Current Conditions -  °F | °C
As of 7:51 AM on Wednesday 22 Oct 2014 (Local Time) from KAHN Reporting Station
Clear Clear  
Wind Chill: 46°   Ceiling: Unl
Heat Index: 46°   Visibility: 10mi
Dew Point: 42°   Wind: 3mph
Humidity: 86%   Direction: 320°NW
Pressure: 30.07"   Gusts: NA
Location:  33.91°N, 83.22°W
Report Text: KAHN 221151Z 32003KT 10SM CLR 08/06 A3007 RMK AO2 SLP181 T00780056 10122 20061 53017
Loading
Personal Weather Stations






























Interactive Weather Map
Tropical Storm Tracking
New forecast layout! Learn more

10-Day Weather Forecast

Advertisements
Track Severe Weather on mobile